createdAt,value
2023-04-22T00:01:39.615Z,22.1
2023-04-22T00:07:33.474Z,22
2023-04-22T00:13:25.066Z,21.9
2023-04-22T00:19:17.846Z,21.9
2023-04-22T00:25:09.605Z,21.9
2023-04-22T00:31:01.365Z,21.8
2023-04-22T00:36:54.039Z,22.2
2023-04-22T00:42:29.685Z,22.3
2023-04-22T00:48:22.475Z,22.1
2023-04-22T00:54:14.065Z,22
2023-04-22T00:59:50.044Z,21.9
2023-04-22T01:05:28.208Z,21.9
2023-04-22T01:11:05.168Z,21.9
2023-04-22T01:16:59.715Z,21.9
2023-04-22T01:22:51.830Z,22.4
2023-04-22T01:28:43.319Z,22.2
2023-04-22T01:34:35.621Z,22.1
2023-04-22T01:40:27.488Z,22
2023-04-22T01:46:18.860Z,21.9
2023-04-22T01:51:55.469Z,21.9
2023-04-22T01:57:31.841Z,21.8
2023-04-22T02:03:24.248Z,22.1
2023-04-22T02:09:16.522Z,22.3
2023-04-22T02:15:08.118Z,22.1
2023-04-22T02:21:00.697Z,22.1
2023-04-22T02:26:52.122Z,21.9
2023-04-22T02:32:43.433Z,21.9
2023-04-22T02:38:34.991Z,21.9
2023-04-22T02:44:26.629Z,21.8
2023-04-22T02:50:17.906Z,22.4
2023-04-22T02:55:54.242Z,22.2
2023-04-22T03:01:46.210Z,22.1
2023-04-22T03:07:42.702Z,22
2023-04-22T03:13:34.601Z,21.9
2023-04-22T03:19:27.071Z,21.9
2023-04-22T03:25:18.818Z,21.8
2023-04-22T03:31:10.028Z,22
2023-04-22T03:37:04.761Z,22.4
2023-04-22T03:42:57.254Z,22.2
2023-04-22T03:48:51.828Z,22.1
2023-04-22T03:54:43.839Z,22
2023-04-22T04:00:35.757Z,21.9
2023-04-22T04:06:17.967Z,21.9
2023-04-22T04:12:09.606Z,21.8
2023-04-22T04:18:01.660Z,22.4
2023-04-22T04:23:55.826Z,22.3
2023-04-22T04:29:32.143Z,22
2023-04-22T04:35:24.439Z,21.8
2023-04-22T04:41:16.484Z,21.8
2023-04-22T04:46:54.388Z,21.7
2023-04-22T04:52:45.498Z,21.6
2023-04-22T04:58:37.271Z,21.8
2023-04-22T05:04:30.939Z,22.4
2023-04-22T05:10:22.785Z,22.2
2023-04-22T05:16:14.382Z,22
2023-04-22T05:22:06.206Z,21.9
2023-04-22T05:27:57.466Z,21.8
2023-04-22T05:33:34.715Z,21.8
2023-04-22T05:39:26.459Z,21.9
2023-04-22T05:45:20.139Z,22.4
2023-04-22T05:51:12.672Z,22.1
2023-04-22T05:57:03.583Z,22
2023-04-22T06:02:56.595Z,21.9
2023-04-22T06:08:35.959Z,21.9
2023-04-22T06:14:33.550Z,21.9
2023-04-22T06:20:27.650Z,21.8
2023-04-22T06:26:03.889Z,22.1
2023-04-22T06:31:55.858Z,22.3
2023-04-22T06:37:47.181Z,22.1
2023-04-22T06:43:38.852Z,21.9
2023-04-22T06:49:30.614Z,21.9
2023-04-22T06:55:24.754Z,21.9
2023-04-22T07:01:17.286Z,21.8
2023-04-22T07:06:55.020Z,21.8
2023-04-22T07:12:31.298Z,22.1
2023-04-22T07:18:23.268Z,22.2
2023-04-22T07:24:15.427Z,22.1
2023-04-22T07:30:06.985Z,21.9
2023-04-22T07:35:43.357Z,21.9
2023-04-22T07:41:35.049Z,21.9
2023-04-22T07:47:26.731Z,21.8
2023-04-22T07:53:21.319Z,22.3
2023-04-22T07:58:58.087Z,22.2
2023-04-22T08:04:53.218Z,22.1
2023-04-22T08:11:01.638Z,21.9
2023-04-22T08:16:53.625Z,21.9
2023-04-22T08:22:45.305Z,21.9
2023-04-22T08:28:36.460Z,21.9
2023-04-22T08:34:16.476Z,22.4
2023-04-22T08:40:13.411Z,22.2
2023-04-22T08:46:08.884Z,22.1
2023-04-22T08:52:03.115Z,21.9
2023-04-22T08:57:39.469Z,21.9
2023-04-22T09:03:32.265Z,21.9
2023-04-22T09:09:09.079Z,22.3
2023-04-22T09:15:02.056Z,22.3
2023-04-22T09:20:53.964Z,22.1
2023-04-22T09:26:45.808Z,22
2023-04-22T09:32:37.805Z,21.9
2023-04-22T09:38:38.466Z,21.9
2023-04-22T09:44:30.419Z,22.1
2023-04-22T09:50:22.527Z,22.3
2023-04-22T09:56:13.653Z,22.1
2023-04-22T10:02:04.824Z,21.9
2023-04-22T10:07:56.640Z,21.8
2023-04-22T10:13:57.293Z,21.8
2023-04-22T10:19:49.494Z,21.8
2023-04-22T10:25:24.954Z,21.7
2023-04-22T10:31:01.249Z,21.7
2023-04-22T10:36:56.395Z,21.6
2023-04-22T10:42:50.319Z,21.6
2023-04-22T10:48:42.667Z,21.6
2023-04-22T10:54:18.877Z,21.5
2023-04-22T11:00:14.787Z,21.5
2023-04-22T11:06:06.748Z,21.4
2023-04-22T11:11:42.605Z,21.4
2023-04-22T11:17:34.996Z,21.3
2023-04-22T11:23:29.542Z,21.3
2023-04-22T11:29:21.444Z,21.2
2023-04-22T11:41:19.571Z,21
2023-04-22T11:47:12.058Z,20.9
2023-04-22T11:53:03.593Z,20.9
2023-04-22T11:58:55.305Z,20.8
2023-04-22T12:04:34.410Z,20.7
2023-04-22T12:10:25.979Z,20.6
2023-04-22T12:16:19.576Z,20.6
2023-04-22T12:22:11.736Z,20.5
2023-04-22T12:28:05.448Z,20.4
2023-04-22T12:33:57.031Z,20.4
2023-04-22T12:39:48.877Z,20.4
2023-04-22T12:45:41.264Z,20.4
2023-04-22T12:51:33.995Z,20.4
2023-04-22T12:57:25.684Z,20.3
2023-04-22T13:03:18.470Z,20.3
2023-04-22T13:09:22.260Z,20.3
2023-04-22T13:15:27.427Z,20.3
2023-04-22T13:21:22.056Z,20.3
2023-04-22T13:26:58.478Z,20.3
2023-04-22T13:32:54.083Z,20.3
2023-04-22T13:38:46.047Z,20.2
2023-04-22T13:44:38.113Z,20.2
2023-04-22T13:50:30.907Z,20.2
2023-04-22T13:56:23.160Z,20.2
2023-04-22T14:01:59.961Z,20.2
2023-04-22T14:07:37.885Z,20.2
2023-04-22T14:13:29.673Z,20.1
2023-04-22T14:19:08.044Z,20.1
2023-04-22T14:24:46.116Z,20.1
2023-04-22T14:30:37.288Z,20.1
2023-04-22T14:36:31.341Z,20.1
2023-04-22T14:42:24.863Z,20.1
2023-04-22T14:48:18.925Z,20.1
2023-04-22T14:54:10.959Z,20.1
2023-04-22T15:00:11.630Z,20.1
2023-04-22T15:06:03.539Z,20.1
2023-04-22T15:11:55.051Z,20.1
2023-04-22T15:17:46.754Z,20.1
2023-04-22T15:23:40.457Z,20.1
2023-04-22T15:29:32.194Z,20.1
2023-04-22T15:35:25.853Z,20
2023-04-22T15:41:17.524Z,20.1
2023-04-22T15:47:10.471Z,20
2023-04-22T15:52:46.602Z,20
2023-04-22T15:58:37.418Z,20
2023-04-22T16:04:53.235Z,20
2023-04-22T16:10:45.162Z,20
2023-04-22T16:16:36.400Z,20
2023-04-22T16:22:27.875Z,20
2023-04-22T16:28:19.144Z,20
2023-04-22T16:33:55.617Z,20
2023-04-22T16:39:31.176Z,20
2023-04-22T16:45:07.292Z,19.9
2023-04-22T16:50:58.661Z,19.9
2023-04-22T16:56:49.978Z,19.9
2023-04-22T17:02:43.514Z,19.9
2023-04-22T17:08:36.494Z,19.9
2023-04-22T17:14:28.309Z,19.9
2023-04-22T17:20:19.835Z,19.9
2023-04-22T17:26:10.867Z,19.8
2023-04-22T17:31:46.524Z,19.8
2023-04-22T17:37:39.538Z,19.8
2023-04-22T17:43:44.406Z,19.8
2023-04-22T17:49:35.570Z,19.8
2023-04-22T17:55:27.039Z,19.8
2023-04-22T18:01:18.415Z,19.8
2023-04-22T18:07:11.325Z,19.8
2023-04-22T18:13:03.431Z,19.8
2023-04-22T18:18:40.709Z,19.8
2023-04-22T18:24:59.972Z,19.8
2023-04-22T18:30:51.369Z,19.8
2023-04-22T18:36:27.520Z,19.8
2023-04-22T18:42:18.829Z,19.8
2023-04-22T18:47:55.179Z,19.8
2023-04-22T18:53:45.866Z,19.8
2023-04-22T18:59:23.094Z,19.8
2023-04-22T19:05:01.148Z,19.8
2023-04-22T19:10:52.472Z,19.8
2023-04-22T19:16:45.038Z,19.8
2023-04-22T19:22:21.324Z,19.8
2023-04-22T19:27:58.102Z,19.8
2023-04-22T19:33:35.315Z,19.8
2023-04-22T19:39:26.836Z,19.8
2023-04-22T19:44:49.149Z,19.8
2023-04-22T19:50:40.934Z,19.8
2023-04-22T19:56:32.069Z,19.8
2023-04-22T20:02:24.517Z,19.8
2023-04-22T20:08:17.809Z,19.8
2023-04-22T20:14:09.183Z,19.8
2023-04-22T20:20:01.202Z,19.8
2023-04-22T20:25:53.589Z,19.8
2023-04-22T20:31:45.565Z,19.8
2023-04-22T20:37:36.885Z,19.8
2023-04-22T20:43:28.021Z,19.8
2023-04-22T20:49:23.404Z,19.8
2023-04-22T20:55:27.163Z,19.9
2023-04-22T21:01:18.034Z,20.6
2023-04-22T21:07:11.624Z,21.3
2023-04-22T21:13:03.470Z,21.1
2023-04-22T21:18:56.350Z,21
2023-04-22T21:24:47.511Z,20.8
2023-04-22T21:30:39.695Z,20.8
2023-04-22T21:36:45.849Z,21.5
2023-04-22T21:42:37.071Z,21.3
2023-04-22T21:48:13.289Z,21.3
2023-04-22T21:54:04.369Z,21.3
2023-04-22T22:11:17.293Z,21.8
2023-04-22T22:17:17.168Z,21.6
2023-04-22T22:23:08.118Z,21.5
2023-04-22T22:29:00.589Z,21.5
2023-04-22T22:34:52.699Z,21.4
2023-04-22T22:40:44.556Z,21.3
2023-04-22T22:46:37.437Z,21.9
2023-04-22T22:52:29.493Z,21.9
2023-04-22T22:58:20.676Z,21.6
2023-04-22T23:04:14.607Z,21.5
2023-04-22T23:09:50.923Z,21.4
2023-04-22T23:15:42.418Z,21.4
2023-04-22T23:21:33.988Z,21.4
2023-04-22T23:27:25.270Z,21.9
2023-04-22T23:33:15.827Z,22
2023-04-22T23:39:08.049Z,21.8
2023-04-22T23:44:59.881Z,21.8
2023-04-22T23:50:36.676Z,21.7
2023-04-22T23:56:28.471Z,21.7
